sensor_id;sensor_type;location;lat;lon;timestamp;temperature;humidity
41922;DHT22;27609;51.002;5.354;2023-04-15T00:00:27;7.10;99.90
41922;DHT22;27609;51.002;5.354;2023-04-15T00:02:53;7.00;99.90
41922;DHT22;27609;51.002;5.354;2023-04-15T00:05:20;7.00;99.90
41922;DHT22;27609;51.002;5.354;2023-04-15T00:07:45;7.00;99.90
41922;DHT22;27609;51.002;5.354;2023-04-15T00:10:12;7.00;99.90
41922;DHT22;27609;51.002;5.354;2023-04-15T00:12:39;7.00;99.90
41922;DHT22;27609;51.002;5.354;2023-04-15T00:15:07;7.10;99.90
41922;DHT22;27609;51.002;5.354;2023-04-15T00:17:33;7.00;99.90
41922;DHT22;27609;51.002;5.354;2023-04-15T00:19:59;7.00;99.90
41922;DHT22;27609;51.002;5.354;2023-04-15T00:22:26;7.00;99.90
41922;DHT22;27609;51.002;5.354;2023-04-15T00:24:52;7.00;99.90
41922;DHT22;27609;51.002;5.354;2023-04-15T00:27:18;7.10;99.90
41922;DHT22;27609;51.002;5.354;2023-04-15T00:29:44;7.00;99.90
41922;DHT22;27609;51.002;5.354;2023-04-15T00:32:10;7.00;99.90
41922;DHT22;27609;51.002;5.354;2023-04-15T00:34:36;7.00;99.90
41922;DHT22;27609;51.002;5.354;2023-04-15T00:37:02;7.10;99.90
41922;DHT22;27609;51.002;5.354;2023-04-15T00:39:27;7.10;99.90
41922;DHT22;27609;51.002;5.354;2023-04-15T00:41:54;7.20;99.90
41922;DHT22;27609;51.002;5.354;2023-04-15T00:44:20;7.20;99.90
41922;DHT22;27609;51.002;5.354;2023-04-15T00:46:46;7.30;99.90
41922;DHT22;27609;51.002;5.354;2023-04-15T00:49:13;7.40;99.90
41922;DHT22;27609;51.002;5.354;2023-04-15T00:51:38;7.40;99.90
41922;DHT22;27609;51.002;5.354;2023-04-15T00:54:04;7.50;99.90
41922;DHT22;27609;51.002;5.354;2023-04-15T00:56:34;7.50;99.90
41922;DHT22;27609;51.002;5.354;2023-04-15T00:59:00;7.50;99.90
41922;DHT22;27609;51.002;5.354;2023-04-15T01:01:27;7.60;99.90
41922;DHT22;27609;51.002;5.354;2023-04-15T01:03:56;7.60;99.90
41922;DHT22;27609;51.002;5.354;2023-04-15T01:06:24;7.70;99.90
41922;DHT22;27609;51.002;5.354;2023-04-15T01:08:52;7.70;99.90
41922;DHT22;27609;51.002;5.354;2023-04-15T01:11:18;7.80;99.90
41922;DHT22;27609;51.002;5.354;2023-04-15T01:13:45;7.80;99.90
41922;DHT22;27609;51.002;5.354;2023-04-15T01:16:12;7.90;99.90
41922;DHT22;27609;51.002;5.354;2023-04-15T01:18:39;7.90;99.90
41922;DHT22;27609;51.002;5.354;2023-04-15T01:21:05;7.90;99.90
41922;DHT22;27609;51.002;5.354;2023-04-15T01:23:32;8.00;99.90
41922;DHT22;27609;51.002;5.354;2023-04-15T01:26:01;8.00;99.90
41922;DHT22;27609;51.002;5.354;2023-04-15T01:28:26;8.00;99.90
41922;DHT22;27609;51.002;5.354;2023-04-15T01:31:19;8.00;99.90
41922;DHT22;27609;51.002;5.354;2023-04-15T01:33:45;8.20;99.90
41922;DHT22;27609;51.002;5.354;2023-04-15T01:36:11;8.20;99.90
41922;DHT22;27609;51.002;5.354;2023-04-15T01:38:37;8.00;99.90
41922;DHT22;27609;51.002;5.354;2023-04-15T01:41:03;8.00;99.90
41922;DHT22;27609;51.002;5.354;2023-04-15T01:43:31;8.10;99.90
41922;DHT22;27609;51.002;5.354;2023-04-15T01:45:56;8.20;99.90
41922;DHT22;27609;51.002;5.354;2023-04-15T01:48:22;8.20;99.90
41922;DHT22;27609;51.002;5.354;2023-04-15T01:50:48;8.30;99.90
41922;DHT22;27609;51.002;5.354;2023-04-15T01:53:14;8.40;99.90
41922;DHT22;27609;51.002;5.354;2023-04-15T01:55:40;8.40;99.90
41922;DHT22;27609;51.002;5.354;2023-04-15T01:58:06;8.50;99.90
41922;DHT22;27609;51.002;5.354;2023-04-15T02:00:32;8.50;99.90
41922;DHT22;27609;51.002;5.354;2023-04-15T02:02:58;8.50;99.90
41922;DHT22;27609;51.002;5.354;2023-04-15T02:05:24;8.40;99.90
41922;DHT22;27609;51.002;5.354;2023-04-15T02:07:50;8.50;99.90
41922;DHT22;27609;51.002;5.354;2023-04-15T02:10:16;8.50;99.90
41922;DHT22;27609;51.002;5.354;2023-04-15T02:12:41;8.50;99.90
41922;DHT22;27609;51.002;5.354;2023-04-15T02:15:07;8.60;99.90
41922;DHT22;27609;51.002;5.354;2023-04-15T02:17:34;8.60;99.90
41922;DHT22;27609;51.002;5.354;2023-04-15T02:20:00;8.60;99.90
41922;DHT22;27609;51.002;5.354;2023-04-15T02:22:26;8.70;99.90
41922;DHT22;27609;51.002;5.354;2023-04-15T02:24:53;8.70;99.90
41922;DHT22;27609;51.002;5.354;2023-04-15T02:27:18;8.70;99.90
41922;DHT22;27609;51.002;5.354;2023-04-15T02:29:44;8.60;99.90
41922;DHT22;27609;51.002;5.354;2023-04-15T02:32:13;8.60;99.90
41922;DHT22;27609;51.002;5.354;2023-04-15T02:34:40;8.50;99.90
41922;DHT22;27609;51.002;5.354;2023-04-15T02:37:08;8.50;99.90
41922;DHT22;27609;51.002;5.354;2023-04-15T02:39:34;8.50;99.90
41922;DHT22;27609;51.002;5.354;2023-04-15T02:42:00;8.60;99.90
41922;DHT22;27609;51.002;5.354;2023-04-15T02:44:26;8.60;99.90
41922;DHT22;27609;51.002;5.354;2023-04-15T02:46:52;8.40;99.90
41922;DHT22;27609;51.002;5.354;2023-04-15T02:49:19;8.50;99.90
41922;DHT22;27609;51.002;5.354;2023-04-15T02:51:46;8.60;99.90
41922;DHT22;27609;51.002;5.354;2023-04-15T02:54:15;8.60;99.90
41922;DHT22;27609;51.002;5.354;2023-04-15T02:56:41;8.60;99.90
41922;DHT22;27609;51.002;5.354;2023-04-15T02:59:06;8.70;99.90
41922;DHT22;27609;51.002;5.354;2023-04-15T03:01:32;8.60;99.90
41922;DHT22;27609;51.002;5.354;2023-04-15T03:03:58;8.60;99.90
41922;DHT22;27609;51.002;5.354;2023-04-15T03:06:23;8.70;99.90
41922;DHT22;27609;51.002;5.354;2023-04-15T03:08:49;8.70;99.90
41922;DHT22;27609;51.002;5.354;2023-04-15T03:11:15;8.70;99.90
41922;DHT22;27609;51.002;5.354;2023-04-15T03:13:41;8.80;99.90
41922;DHT22;27609;51.002;5.354;2023-04-15T03:16:08;8.70;99.90
41922;DHT22;27609;51.002;5.354;2023-04-15T03:18:34;8.80;99.90
41922;DHT22;27609;51.002;5.354;2023-04-15T03:20:59;8.50;99.90
41922;DHT22;27609;51.002;5.354;2023-04-15T03:23:25;8.40;99.90
41922;DHT22;27609;51.002;5.354;2023-04-15T03:25:51;8.50;99.90
41922;DHT22;27609;51.002;5.354;2023-04-15T03:28:20;8.60;99.90
41922;DHT22;27609;51.002;5.354;2023-04-15T03:30:45;8.50;99.90
41922;DHT22;27609;51.002;5.354;2023-04-15T03:33:11;8.50;99.90
41922;DHT22;27609;51.002;5.354;2023-04-15T03:35:37;8.60;99.90
41922;DHT22;27609;51.002;5.354;2023-04-15T03:38:03;8.70;99.90
41922;DHT22;27609;51.002;5.354;2023-04-15T03:40:28;8.70;99.90
41922;DHT22;27609;51.002;5.354;2023-04-15T03:42:54;8.70;99.90
41922;DHT22;27609;51.002;5.354;2023-04-15T03:45:20;8.70;99.90
41922;DHT22;27609;51.002;5.354;2023-04-15T03:47:46;8.80;99.90
41922;DHT22;27609;51.002;5.354;2023-04-15T03:50:12;8.90;99.90
41922;DHT22;27609;51.002;5.354;2023-04-15T03:52:37;8.80;99.90
41922;DHT22;27609;51.002;5.354;2023-04-15T03:55:03;8.90;99.90
41922;DHT22;27609;51.002;5.354;2023-04-15T03:57:30;8.90;99.90
41922;DHT22;27609;51.002;5.354;2023-04-15T03:59:55;8.90;99.90
41922;DHT22;27609;51.002;5.354;2023-04-15T04:02:21;8.90;99.90
41922;DHT22;27609;51.002;5.354;2023-04-15T04:04:47;8.90;99.90
41922;DHT22;27609;51.002;5.354;2023-04-15T04:07:17;8.90;99.90
41922;DHT22;27609;51.002;5.354;2023-04-15T04:09:42;8.90;99.90
41922;DHT22;27609;51.002;5.354;2023-04-15T04:12:08;8.90;99.90
41922;DHT22;27609;51.002;5.354;2023-04-15T04:14:34;8.90;99.90
41922;DHT22;27609;51.002;5.354;2023-04-15T04:17:00;8.90;99.90
41922;DHT22;27609;51.002;5.354;2023-04-15T04:19:25;8.90;99.90
41922;DHT22;27609;51.002;5.354;2023-04-15T04:21:51;8.90;99.90
41922;DHT22;27609;51.002;5.354;2023-04-15T04:24:17;8.90;99.90
41922;DHT22;27609;51.002;5.354;2023-04-15T04:26:43;8.90;99.90
41922;DHT22;27609;51.002;5.354;2023-04-15T04:29:08;8.90;99.90
41922;DHT22;27609;51.002;5.354;2023-04-15T04:31:34;8.80;99.90
41922;DHT22;27609;51.002;5.354;2023-04-15T04:34:00;8.80;99.90
41922;DHT22;27609;51.002;5.354;2023-04-15T04:36:26;8.80;99.90
41922;DHT22;27609;51.002;5.354;2023-04-15T04:38:52;8.70;99.90
41922;DHT22;27609;51.002;5.354;2023-04-15T04:41:18;8.70;99.90
41922;DHT22;27609;51.002;5.354;2023-04-15T04:43:43;8.70;99.90
41922;DHT22;27609;51.002;5.354;2023-04-15T04:46:09;8.70;99.90
41922;DHT22;27609;51.002;5.354;2023-04-15T04:48:36;8.70;99.90
41922;DHT22;27609;51.002;5.354;2023-04-15T04:51:02;8.70;99.90
41922;DHT22;27609;51.002;5.354;2023-04-15T04:53:27;8.70;99.90
41922;DHT22;27609;51.002;5.354;2023-04-15T04:55:53;8.70;99.90
41922;DHT22;27609;51.002;5.354;2023-04-15T04:58:19;8.70;99.90
41922;DHT22;27609;51.002;5.354;2023-04-15T05:00:45;8.80;99.90
41922;DHT22;27609;51.002;5.354;2023-04-15T05:03:10;8.80;99.90
41922;DHT22;27609;51.002;5.354;2023-04-15T05:05:36;8.80;99.90
41922;DHT22;27609;51.002;5.354;2023-04-15T05:08:06;8.80;99.90
41922;DHT22;27609;51.002;5.354;2023-04-15T05:10:32;8.80;99.90
41922;DHT22;27609;51.002;5.354;2023-04-15T05:12:57;8.70;99.90
41922;DHT22;27609;51.002;5.354;2023-04-15T05:15:23;8.80;99.90
41922;DHT22;27609;51.002;5.354;2023-04-15T05:17:49;8.80;99.90
41922;DHT22;27609;51.002;5.354;2023-04-15T05:20:16;8.90;99.90
41922;DHT22;27609;51.002;5.354;2023-04-15T05:22:42;8.90;99.90
41922;DHT22;27609;51.002;5.354;2023-04-15T05:25:08;9.00;99.90
41922;DHT22;27609;51.002;5.354;2023-04-15T05:27:34;9.00;99.90
41922;DHT22;27609;51.002;5.354;2023-04-15T05:30:00;9.00;99.90
41922;DHT22;27609;51.002;5.354;2023-04-15T05:32:26;8.90;99.90
41922;DHT22;27609;51.002;5.354;2023-04-15T05:34:51;8.90;99.90
41922;DHT22;27609;51.002;5.354;2023-04-15T05:37:17;9.00;99.90
41922;DHT22;27609;51.002;5.354;2023-04-15T05:39:45;9.10;99.90
41922;DHT22;27609;51.002;5.354;2023-04-15T05:42:11;9.30;99.90
41922;DHT22;27609;51.002;5.354;2023-04-15T05:44:37;9.40;99.90
41922;DHT22;27609;51.002;5.354;2023-04-15T05:47:02;9.50;99.90
41922;DHT22;27609;51.002;5.354;2023-04-15T05:49:28;9.70;99.90
41922;DHT22;27609;51.002;5.354;2023-04-15T05:51:54;10.00;99.90
41922;DHT22;27609;51.002;5.354;2023-04-15T05:54:20;10.30;99.90
41922;DHT22;27609;51.002;5.354;2023-04-15T05:56:49;10.50;99.90
41922;DHT22;27609;51.002;5.354;2023-04-15T05:59:14;10.70;99.90
41922;DHT22;27609;51.002;5.354;2023-04-15T06:01:40;11.00;99.90
41922;DHT22;27609;51.002;5.354;2023-04-15T06:04:06;10.90;99.90
41922;DHT22;27609;51.002;5.354;2023-04-15T06:06:32;10.60;99.90
41922;DHT22;27609;51.002;5.354;2023-04-15T06:08:57;10.80;99.90
41922;DHT22;27609;51.002;5.354;2023-04-15T06:11:23;10.20;99.90
41922;DHT22;27609;51.002;5.354;2023-04-15T06:13:49;10.40;99.90
41922;DHT22;27609;51.002;5.354;2023-04-15T06:16:15;10.70;99.90
41922;DHT22;27609;51.002;5.354;2023-04-15T06:18:40;10.90;99.90
41922;DHT22;27609;51.002;5.354;2023-04-15T06:21:06;11.00;99.90
41922;DHT22;27609;51.002;5.354;2023-04-15T06:23:35;11.00;99.90
41922;DHT22;27609;51.002;5.354;2023-04-15T06:26:01;11.30;99.90
41922;DHT22;27609;51.002;5.354;2023-04-15T06:28:27;11.40;99.90
41922;DHT22;27609;51.002;5.354;2023-04-15T06:30:53;11.80;99.90
41922;DHT22;27609;51.002;5.354;2023-04-15T06:33:20;12.50;99.90
41922;DHT22;27609;51.002;5.354;2023-04-15T06:35:45;12.90;99.90
41922;DHT22;27609;51.002;5.354;2023-04-15T06:38:12;12.90;99.90
41922;DHT22;27609;51.002;5.354;2023-04-15T06:40:38;13.40;99.90
41922;DHT22;27609;51.002;5.354;2023-04-15T06:43:04;13.80;99.90
41922;DHT22;27609;51.002;5.354;2023-04-15T06:45:30;13.50;99.90
41922;DHT22;27609;51.002;5.354;2023-04-15T06:47:56;14.10;99.90
41922;DHT22;27609;51.002;5.354;2023-04-15T06:50:22;14.80;99.90
41922;DHT22;27609;51.002;5.354;2023-04-15T06:52:47;15.30;99.90
41922;DHT22;27609;51.002;5.354;2023-04-15T06:55:13;16.60;99.90
41922;DHT22;27609;51.002;5.354;2023-04-15T06:57:39;17.70;99.90
41922;DHT22;27609;51.002;5.354;2023-04-15T07:00:05;18.80;99.90
41922;DHT22;27609;51.002;5.354;2023-04-15T07:02:32;19.60;99.90
41922;DHT22;27609;51.002;5.354;2023-04-15T07:04:57;20.70;99.20
41922;DHT22;27609;51.002;5.354;2023-04-15T07:07:23;21.10;97.90
41922;DHT22;27609;51.002;5.354;2023-04-15T07:09:50;20.20;98.30
41922;DHT22;27609;51.002;5.354;2023-04-15T07:12:16;20.10;98.10
41922;DHT22;27609;51.002;5.354;2023-04-15T07:14:42;20.50;97.30
41922;DHT22;27609;51.002;5.354;2023-04-15T07:17:08;19.70;97.40
41922;DHT22;27609;51.002;5.354;2023-04-15T07:19:34;18.40;99.90
41922;DHT22;27609;51.002;5.354;2023-04-15T07:22:00;19.00;99.20
41922;DHT22;27609;51.002;5.354;2023-04-15T07:24:26;19.80;99.30
41922;DHT22;27609;51.002;5.354;2023-04-15T07:26:55;20.80;97.40
41922;DHT22;27609;51.002;5.354;2023-04-15T07:29:22;21.90;95.60
41922;DHT22;27609;51.002;5.354;2023-04-15T07:31:48;23.10;94.70
41922;DHT22;27609;51.002;5.354;2023-04-15T07:34:13;23.40;93.10
41922;DHT22;27609;51.002;5.354;2023-04-15T07:36:39;22.90;92.70
41922;DHT22;27609;51.002;5.354;2023-04-15T07:39:05;21.60;94.00
41922;DHT22;27609;51.002;5.354;2023-04-15T07:41:31;22.10;94.10
41922;DHT22;27609;51.002;5.354;2023-04-15T07:43:56;21.80;93.10
41922;DHT22;27609;51.002;5.354;2023-04-15T07:46:22;21.60;94.40
41922;DHT22;27609;51.002;5.354;2023-04-15T07:48:52;22.50;93.90
41922;DHT22;27609;51.002;5.354;2023-04-15T07:51:19;22.20;93.20
41922;DHT22;27609;51.002;5.354;2023-04-15T07:53:46;21.50;94.80
41922;DHT22;27609;51.002;5.354;2023-04-15T07:56:11;22.70;94.50
41922;DHT22;27609;51.002;5.354;2023-04-15T07:58:37;22.90;93.00
41922;DHT22;27609;51.002;5.354;2023-04-15T08:01:03;21.60;94.30
41922;DHT22;27609;51.002;5.354;2023-04-15T08:03:29;22.20;93.70
41922;DHT22;27609;51.002;5.354;2023-04-15T08:05:56;22.20;94.00
41922;DHT22;27609;51.002;5.354;2023-04-15T08:08:22;22.10;94.10
41922;DHT22;27609;51.002;5.354;2023-04-15T08:10:48;21.80;94.50
41922;DHT22;27609;51.002;5.354;2023-04-15T08:13:14;22.20;94.10
41922;DHT22;27609;51.002;5.354;2023-04-15T08:15:40;21.90;94.20
41922;DHT22;27609;51.002;5.354;2023-04-15T08:18:06;21.60;94.10
41922;DHT22;27609;51.002;5.354;2023-04-15T08:20:32;22.40;94.10
41922;DHT22;27609;51.002;5.354;2023-04-15T08:22:58;23.70;93.00
41922;DHT22;27609;51.002;5.354;2023-04-15T08:25:24;22.90;94.20
41922;DHT22;27609;51.002;5.354;2023-04-15T08:27:49;22.60;93.90
41922;DHT22;27609;51.002;5.354;2023-04-15T08:30:15;21.60;93.90
41922;DHT22;27609;51.002;5.354;2023-04-15T08:32:44;21.20;94.40
41922;DHT22;27609;51.002;5.354;2023-04-15T08:35:11;21.00;94.90
41922;DHT22;27609;51.002;5.354;2023-04-15T08:37:37;21.20;94.10
41922;DHT22;27609;51.002;5.354;2023-04-15T08:40:04;21.10;95.10
41922;DHT22;27609;51.002;5.354;2023-04-15T08:42:31;21.60;95.20
41922;DHT22;27609;51.002;5.354;2023-04-15T08:44:59;22.20;93.80
41922;DHT22;27609;51.002;5.354;2023-04-15T08:47:29;21.60;94.20
41922;DHT22;27609;51.002;5.354;2023-04-15T08:49:57;21.20;94.50
41922;DHT22;27609;51.002;5.354;2023-04-15T08:52:25;21.80;95.20
41922;DHT22;27609;51.002;5.354;2023-04-15T08:54:54;23.10;94.60
41922;DHT22;27609;51.002;5.354;2023-04-15T08:57:25;24.20;92.60
41922;DHT22;27609;51.002;5.354;2023-04-15T08:59:54;23.50;92.20
41922;DHT22;27609;51.002;5.354;2023-04-15T09:02:20;23.20;93.40
41922;DHT22;27609;51.002;5.354;2023-04-15T09:04:46;25.00;91.30
41922;DHT22;27609;51.002;5.354;2023-04-15T09:07:12;25.90;90.70
41922;DHT22;27609;51.002;5.354;2023-04-15T09:09:37;26.10;88.90
41922;DHT22;27609;51.002;5.354;2023-04-15T09:12:04;27.80;87.60
41922;DHT22;27609;51.002;5.354;2023-04-15T09:14:30;28.80;83.30
41922;DHT22;27609;51.002;5.354;2023-04-15T09:17:00;27.90;83.30
41922;DHT22;27609;51.002;5.354;2023-04-15T09:19:27;27.20;81.50
41922;DHT22;27609;51.002;5.354;2023-04-15T09:21:54;26.40;82.30
41922;DHT22;27609;51.002;5.354;2023-04-15T09:24:22;27.50;80.80
41922;DHT22;27609;51.002;5.354;2023-04-15T09:26:51;25.90;82.40
41922;DHT22;27609;51.002;5.354;2023-04-15T09:29:17;26.10;82.20
41922;DHT22;27609;51.002;5.354;2023-04-15T09:31:43;27.30;82.30
41922;DHT22;27609;51.002;5.354;2023-04-15T09:34:09;28.70;79.20
41922;DHT22;27609;51.002;5.354;2023-04-15T09:39:16;28.00;77.30
41922;DHT22;27609;51.002;5.354;2023-04-15T09:41:42;26.70;77.20
41922;DHT22;27609;51.002;5.354;2023-04-15T09:44:24;25.50;80.70
41922;DHT22;27609;51.002;5.354;2023-04-15T09:46:50;26.70;78.70
41922;DHT22;27609;51.002;5.354;2023-04-15T09:49:16;28.80;75.20
41922;DHT22;27609;51.002;5.354;2023-04-15T09:51:42;28.90;73.10
41922;DHT22;27609;51.002;5.354;2023-04-15T09:54:08;29.40;72.10
41922;DHT22;27609;51.002;5.354;2023-04-15T09:56:35;28.70;74.60
41922;DHT22;27609;51.002;5.354;2023-04-15T09:59:08;29.00;73.90
41922;DHT22;27609;51.002;5.354;2023-04-15T10:01:34;28.00;71.10
41922;DHT22;27609;51.002;5.354;2023-04-15T10:04:03;27.70;73.50
41922;DHT22;27609;51.002;5.354;2023-04-15T10:06:29;29.10;66.40
41922;DHT22;27609;51.002;5.354;2023-04-15T10:08:57;29.30;65.60
41922;DHT22;27609;51.002;5.354;2023-04-15T10:11:23;29.00;65.50
41922;DHT22;27609;51.002;5.354;2023-04-15T10:13:50;29.40;66.30
41922;DHT22;27609;51.002;5.354;2023-04-15T10:16:19;28.70;66.80
41922;DHT22;27609;51.002;5.354;2023-04-15T10:18:46;28.90;66.80
41922;DHT22;27609;51.002;5.354;2023-04-15T10:21:13;29.20;63.70
41922;DHT22;27609;51.002;5.354;2023-04-15T10:23:44;29.00;63.90
41922;DHT22;27609;51.002;5.354;2023-04-15T10:26:11;27.50;68.10
41922;DHT22;27609;51.002;5.354;2023-04-15T10:28:37;28.40;66.00
41922;DHT22;27609;51.002;5.354;2023-04-15T10:31:04;28.60;63.60
41922;DHT22;27609;51.002;5.354;2023-04-15T10:33:30;29.00;62.40
41922;DHT22;27609;51.002;5.354;2023-04-15T10:35:57;29.20;62.00
41922;DHT22;27609;51.002;5.354;2023-04-15T10:38:33;29.70;63.10
41922;DHT22;27609;51.002;5.354;2023-04-15T10:41:25;28.80;61.70
41922;DHT22;27609;51.002;5.354;2023-04-15T10:46:41;28.40;64.40
41922;DHT22;27609;51.002;5.354;2023-04-15T10:49:08;28.90;63.70
41922;DHT22;27609;51.002;5.354;2023-04-15T10:51:37;28.60;61.30
41922;DHT22;27609;51.002;5.354;2023-04-15T10:54:09;27.40;63.00
41922;DHT22;27609;51.002;5.354;2023-04-15T10:56:37;26.90;63.30
41922;DHT22;27609;51.002;5.354;2023-04-15T10:59:05;27.00;62.30
41922;DHT22;27609;51.002;5.354;2023-04-15T11:01:55;25.70;67.40
41922;DHT22;27609;51.002;5.354;2023-04-15T11:04:52;26.20;67.20
41922;DHT22;27609;51.002;5.354;2023-04-15T11:12:48;32.60;60.10
41922;DHT22;27609;51.002;5.354;2023-04-15T11:15:54;32.40;58.70
41922;DHT22;27609;51.002;5.354;2023-04-15T11:20:52;32.80;59.40
41922;DHT22;27609;51.002;5.354;2023-04-15T11:23:39;33.60;57.50
41922;DHT22;27609;51.002;5.354;2023-04-15T11:26:09;33.00;57.90
41922;DHT22;27609;51.002;5.354;2023-04-15T11:28:43;32.90;58.20
41922;DHT22;27609;51.002;5.354;2023-04-15T11:31:14;33.20;57.90
41922;DHT22;27609;51.002;5.354;2023-04-15T11:33:57;34.00;56.90
41922;DHT22;27609;51.002;5.354;2023-04-15T11:36:27;35.20;56.70
41922;DHT22;27609;51.002;5.354;2023-04-15T11:38:54;35.90;54.90
41922;DHT22;27609;51.002;5.354;2023-04-15T11:41:21;34.60;55.30
41922;DHT22;27609;51.002;5.354;2023-04-15T11:43:47;35.00;51.90
41922;DHT22;27609;51.002;5.354;2023-04-15T11:46:13;34.90;51.50
41922;DHT22;27609;51.002;5.354;2023-04-15T11:48:43;34.30;50.60
41922;DHT22;27609;51.002;5.354;2023-04-15T11:51:12;32.80;53.30
41922;DHT22;27609;51.002;5.354;2023-04-15T11:53:47;32.30;53.50
41922;DHT22;27609;51.002;5.354;2023-04-15T11:56:20;32.40;54.30
41922;DHT22;27609;51.002;5.354;2023-04-15T11:58:47;32.90;55.00
41922;DHT22;27609;51.002;5.354;2023-04-15T12:01:15;33.50;52.50
41922;DHT22;27609;51.002;5.354;2023-04-15T12:03:45;32.90;52.60
41922;DHT22;27609;51.002;5.354;2023-04-15T12:16:58;34.60;52.80
41922;DHT22;27609;51.002;5.354;2023-04-15T12:19:38;33.90;50.70
41922;DHT22;27609;51.002;5.354;2023-04-15T12:22:09;33.20;52.10
41922;DHT22;27609;51.002;5.354;2023-04-15T12:24:36;33.50;52.70
41922;DHT22;27609;51.002;5.354;2023-04-15T12:27:07;33.40;48.90
41922;DHT22;27609;51.002;5.354;2023-04-15T12:29:35;32.70;48.70
41922;DHT22;27609;51.002;5.354;2023-04-15T12:32:07;33.40;49.30
41922;DHT22;27609;51.002;5.354;2023-04-15T12:34:35;35.00;49.70
41922;DHT22;27609;51.002;5.354;2023-04-15T12:37:03;34.80;48.40
41922;DHT22;27609;51.002;5.354;2023-04-15T12:39:31;36.10;48.90
41922;DHT22;27609;51.002;5.354;2023-04-15T12:41:59;35.40;46.50
41922;DHT22;27609;51.002;5.354;2023-04-15T12:44:26;35.20;48.70
41922;DHT22;27609;51.002;5.354;2023-04-15T12:46:52;31.80;49.00
41922;DHT22;27609;51.002;5.354;2023-04-15T12:49:19;31.60;50.20
41922;DHT22;27609;51.002;5.354;2023-04-15T12:51:50;31.80;51.10
41922;DHT22;27609;51.002;5.354;2023-04-15T12:54:17;33.00;51.00
41922;DHT22;27609;51.002;5.354;2023-04-15T12:56:44;33.70;50.20
41922;DHT22;27609;51.002;5.354;2023-04-15T12:59:11;34.80;49.80
41922;DHT22;27609;51.002;5.354;2023-04-15T13:01:37;34.80;48.70
41922;DHT22;27609;51.002;5.354;2023-04-15T13:04:03;35.10;47.60
41922;DHT22;27609;51.002;5.354;2023-04-15T13:06:29;34.30;49.10
41922;DHT22;27609;51.002;5.354;2023-04-15T13:09:01;33.10;47.60
41922;DHT22;27609;51.002;5.354;2023-04-15T13:11:28;31.20;49.80
41922;DHT22;27609;51.002;5.354;2023-04-15T13:13:56;30.60;51.30
41922;DHT22;27609;51.002;5.354;2023-04-15T13:16:22;30.80;51.00
41922;DHT22;27609;51.002;5.354;2023-04-15T13:18:48;30.50;51.00
41922;DHT22;27609;51.002;5.354;2023-04-15T13:21:15;30.10;51.70
41922;DHT22;27609;51.002;5.354;2023-04-15T13:23:41;30.20;50.30
41922;DHT22;27609;51.002;5.354;2023-04-15T13:26:07;29.60;51.80
41922;DHT22;27609;51.002;5.354;2023-04-15T13:28:33;27.70;53.70
41922;DHT22;27609;51.002;5.354;2023-04-15T13:30:59;27.60;52.80
41922;DHT22;27609;51.002;5.354;2023-04-15T13:33:25;28.20;53.80
41922;DHT22;27609;51.002;5.354;2023-04-15T13:35:51;27.80;54.70
41922;DHT22;27609;51.002;5.354;2023-04-15T13:38:17;26.90;55.50
41922;DHT22;27609;51.002;5.354;2023-04-15T13:40:43;25.60;57.20
41922;DHT22;27609;51.002;5.354;2023-04-15T13:43:09;25.30;58.10
41922;DHT22;27609;51.002;5.354;2023-04-15T13:45:34;25.80;56.10
41922;DHT22;27609;51.002;5.354;2023-04-15T13:48:00;26.50;56.20
41922;DHT22;27609;51.002;5.354;2023-04-15T13:50:27;26.30;57.40
41922;DHT22;27609;51.002;5.354;2023-04-15T13:52:53;27.50;56.40
41922;DHT22;27609;51.002;5.354;2023-04-15T13:55:18;28.40;56.90
41922;DHT22;27609;51.002;5.354;2023-04-15T13:57:44;28.10;55.80
41922;DHT22;27609;51.002;5.354;2023-04-15T14:00:10;28.60;54.90
41922;DHT22;27609;51.002;5.354;2023-04-15T14:02:36;29.10;55.30
41922;DHT22;27609;51.002;5.354;2023-04-15T14:05:02;29.00;55.20
41922;DHT22;27609;51.002;5.354;2023-04-15T14:07:28;29.00;55.90
41922;DHT22;27609;51.002;5.354;2023-04-15T14:09:55;29.60;55.80
41922;DHT22;27609;51.002;5.354;2023-04-15T14:12:21;28.80;55.10
41922;DHT22;27609;51.002;5.354;2023-04-15T14:14:47;27.70;54.60
41922;DHT22;27609;51.002;5.354;2023-04-15T14:17:12;26.50;57.60
41922;DHT22;27609;51.002;5.354;2023-04-15T14:19:38;26.60;58.00
41922;DHT22;27609;51.002;5.354;2023-04-15T14:22:04;25.80;58.80
41922;DHT22;27609;51.002;5.354;2023-04-15T14:24:30;24.70;59.80
41922;DHT22;27609;51.002;5.354;2023-04-15T14:26:56;24.20;59.60
41922;DHT22;27609;51.002;5.354;2023-04-15T14:29:22;23.60;61.30
41922;DHT22;27609;51.002;5.354;2023-04-15T14:31:47;23.30;64.30
41922;DHT22;27609;51.002;5.354;2023-04-15T14:34:14;23.90;62.10
41922;DHT22;27609;51.002;5.354;2023-04-15T14:36:40;24.90;61.60
41922;DHT22;27609;51.002;5.354;2023-04-15T14:39:06;25.00;59.60
41922;DHT22;27609;51.002;5.354;2023-04-15T14:41:33;24.70;62.20
41922;DHT22;27609;51.002;5.354;2023-04-15T14:43:58;24.20;62.60
41922;DHT22;27609;51.002;5.354;2023-04-15T14:46:25;23.30;62.80
41922;DHT22;27609;51.002;5.354;2023-04-15T14:48:50;23.10;66.10
41922;DHT22;27609;51.002;5.354;2023-04-15T14:51:16;23.60;64.70
41922;DHT22;27609;51.002;5.354;2023-04-15T14:53:42;24.00;64.10
41922;DHT22;27609;51.002;5.354;2023-04-15T14:56:08;23.60;63.10
41922;DHT22;27609;51.002;5.354;2023-04-15T14:58:34;23.30;65.90
41922;DHT22;27609;51.002;5.354;2023-04-15T15:01:00;23.00;65.70
41922;DHT22;27609;51.002;5.354;2023-04-15T15:03:27;22.40;67.40
41922;DHT22;27609;51.002;5.354;2023-04-15T15:05:53;22.30;67.10
41922;DHT22;27609;51.002;5.354;2023-04-15T15:08:19;22.00;68.00
41922;DHT22;27609;51.002;5.354;2023-04-15T15:10:45;22.00;68.20
41922;DHT22;27609;51.002;5.354;2023-04-15T15:13:11;22.60;66.30
41922;DHT22;27609;51.002;5.354;2023-04-15T15:15:37;22.50;65.70
41922;DHT22;27609;51.002;5.354;2023-04-15T15:18:04;22.40;64.80
41922;DHT22;27609;51.002;5.354;2023-04-15T15:20:30;21.90;66.50
41922;DHT22;27609;51.002;5.354;2023-04-15T15:22:57;21.70;67.40
41922;DHT22;27609;51.002;5.354;2023-04-15T15:25:23;21.10;68.10
41922;DHT22;27609;51.002;5.354;2023-04-15T15:27:48;20.50;69.70
41922;DHT22;27609;51.002;5.354;2023-04-15T15:30:14;19.90;71.10
41922;DHT22;27609;51.002;5.354;2023-04-15T15:32:41;19.70;72.40
41922;DHT22;27609;51.002;5.354;2023-04-15T15:35:07;19.40;73.00
41922;DHT22;27609;51.002;5.354;2023-04-15T15:37:34;19.10;73.40
41922;DHT22;27609;51.002;5.354;2023-04-15T15:40:00;18.90;74.20
41922;DHT22;27609;51.002;5.354;2023-04-15T15:42:30;18.90;75.70
41922;DHT22;27609;51.002;5.354;2023-04-15T15:44:56;19.00;74.60
41922;DHT22;27609;51.002;5.354;2023-04-15T15:47:22;18.70;75.00
41922;DHT22;27609;51.002;5.354;2023-04-15T15:49:48;18.60;76.40
41922;DHT22;27609;51.002;5.354;2023-04-15T15:52:13;18.60;78.70
41922;DHT22;27609;51.002;5.354;2023-04-15T15:54:40;18.70;78.50
41922;DHT22;27609;51.002;5.354;2023-04-15T15:57:06;18.90;79.30
41922;DHT22;27609;51.002;5.354;2023-04-15T15:59:32;19.10;78.40